createdAt,value
2018-06-19T00:01:11.539Z,101743.69
2018-06-19T00:03:40.753Z,101733.62
2018-06-19T00:06:09.412Z,101735.42
2018-06-19T00:08:37.967Z,101727.05
2018-06-19T00:11:08.406Z,101729.52
2018-06-19T00:13:36.961Z,101742.06
2018-06-19T00:16:05.721Z,101745.47
2018-06-19T00:18:37.980Z,101739.44
2018-06-19T00:21:11.783Z,101739.92
2018-06-19T00:23:40.456Z,101749.50
2018-06-19T00:26:10.131Z,101739.98
2018-06-19T00:28:41.218Z,101738.66
2018-06-19T00:31:09.859Z,101739.06
2018-06-19T00:33:38.401Z,101739.55
2018-06-19T00:36:07.576Z,101737.75
2018-06-19T00:38:36.248Z,101730.28
2018-06-19T00:41:04.890Z,101735.06
2018-06-19T00:43:33.444Z,101734.17
2018-06-19T00:46:03.191Z,101731.98
2018-06-19T00:48:31.802Z,101727.00
2018-06-19T00:51:00.380Z,101725.16
2018-06-19T00:53:29.034Z,101726.14
2018-06-19T00:56:08.522Z,101730.36
2018-06-19T00:58:37.104Z,101737.74
2018-06-19T01:01:05.841Z,101720.88
2018-06-19T01:03:34.622Z,101734.51
2018-06-19T01:06:03.176Z,101736.27
2018-06-19T01:08:31.824Z,101737.27
2018-06-19T01:11:00.340Z,101736.93
2018-06-19T01:13:29.867Z,101733.80
2018-06-19T01:15:59.337Z,101746.17
2018-06-19T01:18:27.937Z,101744.09
2018-06-19T01:20:56.457Z,101744.08
2018-06-19T01:23:25.044Z,101745.39
2018-06-19T01:25:53.768Z,101744.72
2018-06-19T01:28:22.379Z,101742.59
2018-06-19T01:30:51.004Z,101742.31
2018-06-19T01:33:19.678Z,101738.49
2018-06-19T01:35:48.289Z,101737.68
2018-06-19T01:38:17.112Z,101738.49
2018-06-19T01:40:45.647Z,101736.11
2018-06-19T01:43:14.245Z,101739.62
2018-06-19T01:45:42.787Z,101746.68
2018-06-19T01:48:11.407Z,101744.05
2018-06-19T01:50:39.972Z,101738.87
2018-06-19T01:53:08.518Z,101747.55
2018-06-19T01:55:37.916Z,101749.19
2018-06-19T01:58:06.526Z,101745.25
2018-06-19T02:00:35.128Z,101739.95
2018-06-19T02:03:04.762Z,101737.19
2018-06-19T02:05:33.436Z,101733.27
2018-06-19T02:08:02.001Z,101740.38
2018-06-19T02:10:30.645Z,101734.63
2018-06-19T02:12:59.194Z,101737.32
2018-06-19T02:15:27.913Z,101736.25
2018-06-19T02:17:56.463Z,101745.81
2018-06-19T02:20:25.255Z,101750.51
2018-06-19T02:22:53.819Z,101756.89
2018-06-19T02:25:22.472Z,101754.27
2018-06-19T02:27:52.217Z,101757.50
2018-06-19T02:30:20.839Z,101755.31
2018-06-19T02:32:49.726Z,101751.92
2018-06-19T02:35:19.245Z,101757.74
2018-06-19T02:37:48.801Z,101757.23
2018-06-19T02:40:17.437Z,101756.23
2018-06-19T02:42:45.981Z,101758.80
2018-06-19T02:45:14.513Z,101769.34
2018-06-19T02:47:43.076Z,101769.42
2018-06-19T02:50:11.651Z,101770.48
2018-06-19T02:52:40.459Z,101770.19
2018-06-19T02:55:09.038Z,101783.05
2018-06-19T02:57:37.728Z,101781.86
2018-06-19T03:00:06.704Z,101783.68
2018-06-19T03:02:35.306Z,101782.61
2018-06-19T03:05:03.922Z,101794.95
2018-06-19T03:07:32.554Z,101792.00
2018-06-19T03:10:01.141Z,101792.06
2018-06-19T03:12:29.731Z,101804.56
2018-06-19T03:14:58.275Z,101797.06
2018-06-19T03:17:26.992Z,101799.47
2018-06-19T03:19:56.152Z,101793.14
2018-06-19T03:22:24.750Z,101792.18
2018-06-19T03:24:53.688Z,101794.38
2018-06-19T03:27:22.308Z,101788.56
2018-06-19T03:29:51.468Z,101800.13
2018-06-19T03:32:20.052Z,101793.01
2018-06-19T03:34:48.725Z,101800.56
2018-06-19T03:37:17.363Z,101805.47
2018-06-19T03:39:45.988Z,101800.34
2018-06-19T03:42:14.652Z,101798.31
2018-06-19T03:44:43.265Z,101799.33
2018-06-19T03:47:11.859Z,101804.57
2018-06-19T03:49:40.515Z,101805.17
2018-06-19T03:52:09.333Z,101810.91
2018-06-19T03:54:38.253Z,101811.28
2018-06-19T03:57:07.808Z,101806.77
2018-06-19T03:59:36.443Z,101808.52
2018-06-19T04:02:05.035Z,101814.84
2018-06-19T04:04:33.605Z,101816.15
2018-06-19T04:07:02.892Z,101819.28
2018-06-19T04:09:32.060Z,101830.00
2018-06-19T04:12:00.644Z,101827.95
2018-06-19T04:14:30.096Z,101833.13
2018-06-19T04:16:58.672Z,101836.13
2018-06-19T04:19:27.373Z,101840.71
2018-06-19T04:21:56.630Z,101834.39
2018-06-19T04:24:25.234Z,101838.09
2018-06-19T04:26:53.800Z,101841.56
2018-06-19T04:29:22.515Z,101841.28
2018-06-19T04:31:51.125Z,101846.23
2018-06-19T04:34:20.020Z,101842.73
2018-06-19T04:36:48.692Z,101844.55
2018-06-19T04:39:17.294Z,101850.28
2018-06-19T04:41:45.836Z,101846.34
2018-06-19T04:44:16.047Z,101854.75
2018-06-19T04:46:44.612Z,101859.83
2018-06-19T04:49:14.173Z,101858.62
2018-06-19T04:51:42.862Z,101859.72
2018-06-19T04:54:13.431Z,101855.39
2018-06-19T04:56:42.743Z,101854.68
2018-06-19T04:59:12.750Z,101854.20
2018-06-19T05:01:41.591Z,101856.16
2018-06-19T05:04:10.221Z,101858.17
2018-06-19T05:06:40.035Z,101857.02
2018-06-19T05:09:12.616Z,101857.25
2018-06-19T05:11:42.700Z,101855.27
2018-06-19T05:14:11.845Z,101861.59
2018-06-19T05:16:41.730Z,101860.56
2018-06-19T05:19:10.767Z,101869.69
2018-06-19T05:21:39.479Z,101865.47
2018-06-19T05:24:09.332Z,101858.83
2018-06-19T05:26:38.532Z,101858.89
2018-06-19T05:29:08.661Z,101851.84
2018-06-19T05:31:37.611Z,101853.67
2018-06-19T05:34:07.025Z,101854.00
2018-06-19T05:36:36.006Z,101857.37
2018-06-19T05:39:07.318Z,101855.69
2018-06-19T05:41:36.186Z,101851.89
2018-06-19T05:44:05.427Z,101859.73
2018-06-19T05:46:34.276Z,101853.20
2018-06-19T05:49:03.085Z,101858.50
2018-06-19T05:51:31.835Z,101860.83
2018-06-19T05:54:00.492Z,101870.58
2018-06-19T05:56:29.184Z,101866.16
2018-06-19T05:58:57.789Z,101862.42
2018-06-19T06:01:26.696Z,101868.16
2018-06-19T06:03:56.005Z,101880.27
2018-06-19T06:06:24.753Z,101871.01
2018-06-19T06:08:53.415Z,101869.48
2018-06-19T06:11:22.079Z,101871.84
2018-06-19T06:13:50.893Z,101872.62
2018-06-19T06:16:19.521Z,101873.28
2018-06-19T06:18:48.323Z,101871.06
2018-06-19T06:21:16.906Z,101876.42
2018-06-19T06:23:45.823Z,101875.00
2018-06-19T06:26:14.653Z,101877.81
2018-06-19T06:28:43.438Z,101881.55
2018-06-19T06:31:12.368Z,101876.24
2018-06-19T06:33:41.017Z,101884.56
2018-06-19T06:36:09.757Z,101886.31
2018-06-19T06:38:38.629Z,101889.62
2018-06-19T06:41:07.252Z,101888.44
2018-06-19T06:43:35.864Z,101892.00
2018-06-19T06:46:04.625Z,101893.31
2018-06-19T06:48:33.312Z,101901.00
2018-06-19T06:51:02.226Z,101896.39
2018-06-19T06:53:30.801Z,101891.93
2018-06-19T06:55:59.334Z,101897.63
2018-06-19T06:58:27.885Z,101896.39
2018-06-19T07:00:56.485Z,101892.99
2018-06-19T07:03:25.108Z,101893.52
2018-06-19T07:05:54.088Z,101900.52
2018-06-19T07:08:23.467Z,101895.20
2018-06-19T07:10:52.204Z,101900.45
2018-06-19T07:13:21.034Z,101896.25
2018-06-19T07:15:49.750Z,101901.13
2018-06-19T07:18:18.495Z,101899.17
2018-06-19T07:20:48.125Z,101900.23
2018-06-19T07:23:16.668Z,101907.05
2018-06-19T07:25:45.479Z,101910.47
2018-06-19T07:28:14.032Z,101915.34
2018-06-19T07:30:42.656Z,101915.83
2018-06-19T07:33:11.282Z,101918.17
2018-06-19T07:35:39.940Z,101914.02
2018-06-19T07:38:08.584Z,101917.30
2018-06-19T07:40:37.096Z,101923.62
2018-06-19T07:43:05.843Z,101925.05
2018-06-19T07:45:34.835Z,101921.62
2018-06-19T07:48:03.348Z,101920.36
2018-06-19T07:50:32.275Z,101925.16
2018-06-19T07:53:00.864Z,101927.36
2018-06-19T07:55:29.423Z,101929.12
2018-06-19T07:57:58.013Z,101927.80
2018-06-19T08:00:26.567Z,101928.55
2018-06-19T08:02:55.184Z,101933.38
2018-06-19T08:05:23.824Z,101935.75
2018-06-19T08:07:52.552Z,101934.25
2018-06-19T08:10:21.125Z,101938.07
2018-06-19T08:12:50.276Z,101937.98
2018-06-19T08:15:19.391Z,101937.05
2018-06-19T08:17:48.657Z,101943.62
2018-06-19T08:20:17.288Z,101943.00
2018-06-19T08:22:46.045Z,101938.80
2018-06-19T08:25:14.689Z,101942.48
2018-06-19T08:27:43.388Z,101945.11
2018-06-19T08:30:11.964Z,101944.99
2018-06-19T08:32:40.557Z,101955.15
2018-06-19T08:35:09.180Z,101950.70
2018-06-19T08:37:37.840Z,101951.08
2018-06-19T08:40:06.572Z,101952.02
2018-06-19T08:42:35.174Z,101952.52
2018-06-19T08:45:03.828Z,101950.02
2018-06-19T08:47:32.405Z,101952.34
2018-06-19T08:50:01.040Z,101956.38
2018-06-19T08:52:29.659Z,101958.65
2018-06-19T08:54:58.271Z,101961.28
2018-06-19T08:57:26.832Z,101958.50
2018-06-19T08:59:55.501Z,101954.57
2018-06-19T09:02:24.109Z,101958.69
2018-06-19T09:04:52.808Z,101962.75
2018-06-19T09:07:21.486Z,101959.16
2018-06-19T09:09:50.090Z,101967.14
2018-06-19T09:12:18.736Z,101965.87
2018-06-19T09:14:47.660Z,101968.95
2018-06-19T09:17:16.319Z,101976.91
2018-06-19T09:19:46.121Z,101975.34
2018-06-19T09:22:16.042Z,101975.45
2018-06-19T09:24:49.430Z,101980.34
2018-06-19T09:27:18.176Z,101978.47
2018-06-19T09:29:47.219Z,101976.39
2018-06-19T09:32:16.378Z,101979.85
2018-06-19T09:34:45.149Z,101976.05
2018-06-19T09:37:13.766Z,101978.34
2018-06-19T09:39:42.433Z,101982.42
2018-06-19T09:42:11.016Z,101984.05
2018-06-19T09:44:39.648Z,101981.30
2018-06-19T09:47:08.307Z,101974.73
2018-06-19T09:49:36.931Z,101978.47
2018-06-19T09:52:05.612Z,101980.02
2018-06-19T09:54:34.432Z,101972.81
2018-06-19T09:57:03.104Z,101974.53
2018-06-19T09:59:31.771Z,101976.25
2018-06-19T10:02:00.396Z,101981.89
2018-06-19T10:04:28.941Z,101974.55
2018-06-19T10:06:57.541Z,101977.02
2018-06-19T10:09:26.146Z,101974.34
2018-06-19T10:11:54.856Z,101973.73
2018-06-19T10:14:23.404Z,101974.45
2018-06-19T10:16:52.097Z,101973.58
2018-06-19T10:19:20.652Z,101974.83
2018-06-19T10:21:49.244Z,101986.06
2018-06-19T10:24:17.802Z,101981.35
2018-06-19T10:26:46.564Z,101982.06
2018-06-19T10:29:15.200Z,101984.84
2018-06-19T10:31:44.021Z,101986.66
2018-06-19T10:34:12.561Z,101990.45
2018-06-19T10:36:41.174Z,101987.05
2018-06-19T10:39:10.929Z,101988.02
2018-06-19T10:41:39.623Z,101991.69
2018-06-19T10:44:08.210Z,101988.78
2018-06-19T10:46:36.921Z,101988.98
2018-06-19T10:49:05.682Z,101997.27
2018-06-19T10:51:34.207Z,101990.27
2018-06-19T10:54:02.768Z,101989.77
2018-06-19T10:56:31.362Z,101997.13
2018-06-19T10:58:59.991Z,101997.19
2018-06-19T11:01:28.562Z,101999.80
2018-06-19T11:03:57.129Z,101995.13
2018-06-19T11:06:25.758Z,102003.30
2018-06-19T11:08:54.504Z,101999.34
2018-06-19T11:11:23.165Z,102003.79
2018-06-19T11:13:51.897Z,101999.74
2018-06-19T11:16:20.472Z,101994.48
2018-06-19T11:18:49.060Z,101995.98
2018-06-19T11:21:17.641Z,101998.77
2018-06-19T11:23:46.291Z,101999.02
2018-06-19T11:26:15.121Z,102002.03
2018-06-19T11:28:43.739Z,101997.26
2018-06-19T11:31:12.372Z,102001.46
2018-06-19T11:33:41.046Z,102006.48
2018-06-19T11:36:09.612Z,101999.95
2018-06-19T11:38:38.260Z,101995.50
2018-06-19T11:41:07.047Z,101993.31
2018-06-19T11:43:35.597Z,102002.72
2018-06-19T11:46:04.228Z,102001.83
2018-06-19T11:48:32.774Z,101985.33
2018-06-19T11:51:01.488Z,101992.05
2018-06-19T11:53:30.162Z,101992.55
2018-06-19T11:55:58.752Z,101981.39
2018-06-19T11:58:27.320Z,101985.87
2018-06-19T12:00:55.900Z,101990.41
2018-06-19T12:03:24.563Z,101989.61
2018-06-19T12:05:53.176Z,101984.98
2018-06-19T12:08:21.736Z,101986.14
2018-06-19T12:10:50.459Z,101979.63
2018-06-19T12:13:19.116Z,101982.30
2018-06-19T12:15:47.725Z,101978.87
2018-06-19T12:18:16.566Z,101977.39
2018-06-19T12:20:45.204Z,101980.30
2018-06-19T12:23:13.749Z,101983.90
2018-06-19T12:25:42.332Z,101977.05
2018-06-19T12:28:10.933Z,101983.16
2018-06-19T12:30:39.496Z,101982.80
2018-06-19T12:33:08.152Z,101974.45
2018-06-19T12:35:36.789Z,101980.95
2018-06-19T12:38:05.581Z,101978.63
2018-06-19T12:40:34.292Z,101984.38
2018-06-19T12:43:03.028Z,101983.27
2018-06-19T12:45:31.621Z,101988.80
2018-06-19T12:48:00.208Z,101978.22
2018-06-19T12:50:40.943Z,101981.15
2018-06-19T12:53:20.872Z,101982.76
2018-06-19T12:56:01.173Z,101990.91
2018-06-19T12:58:29.781Z,101988.86
2018-06-19T13:00:58.324Z,101994.17
2018-06-19T13:03:37.924Z,101989.44
2018-06-19T13:06:17.513Z,101998.75
2018-06-19T13:08:46.123Z,101995.20
2018-06-19T13:11:14.752Z,101999.08
2018-06-19T13:13:54.359Z,101998.24
2018-06-19T13:16:33.833Z,101997.03
2018-06-19T13:19:13.540Z,101995.67
2018-06-19T13:21:42.161Z,101991.31
2018-06-19T13:24:10.746Z,101996.59
2018-06-19T13:26:39.337Z,101991.50
2018-06-19T13:29:46.052Z,101994.32
2018-06-19T13:32:14.637Z,101987.76
2018-06-19T13:34:43.289Z,101989.16
2018-06-19T13:37:11.900Z,101989.40
2018-06-19T13:39:41.104Z,101988.59
2018-06-19T13:42:24.494Z,101992.17
2018-06-19T13:44:59.649Z,101988.52
2018-06-19T13:47:28.240Z,101992.16
2018-06-19T13:49:56.928Z,101994.75
2018-06-19T13:52:25.636Z,101992.58
2018-06-19T13:57:06.352Z,101987.91
2018-06-19T13:59:34.903Z,101989.08
2018-06-19T14:02:03.524Z,101992.03
2018-06-19T14:04:33.208Z,101985.64
2018-06-19T14:07:02.512Z,101988.82
2018-06-19T14:09:43.868Z,101990.38
2018-06-19T14:12:26.336Z,101983.30
2018-06-19T14:14:56.215Z,101980.05
2018-06-19T14:17:25.601Z,101982.33
2018-06-19T14:19:55.353Z,101988.05
2018-06-19T14:22:25.127Z,101981.20
2018-06-19T14:24:53.809Z,101987.72
2018-06-19T14:27:22.651Z,101982.92
2018-06-19T14:29:51.270Z,101981.56
2018-06-19T14:32:20.509Z,101983.77
2018-06-19T14:34:49.210Z,101986.33
2018-06-19T14:37:17.751Z,101975.84
2018-06-19T14:39:46.640Z,101980.36
2018-06-19T14:42:15.284Z,101983.64
2018-06-19T14:44:43.911Z,101980.77
2018-06-19T14:47:12.435Z,101980.80
2018-06-19T14:49:41.068Z,101981.84
2018-06-19T14:52:09.731Z,101977.84
2018-06-19T14:54:38.428Z,101983.51
2018-06-19T14:57:07.004Z,101982.25
2018-06-19T14:59:35.677Z,101981.41
2018-06-19T15:02:04.265Z,101978.47
2018-06-19T15:04:32.919Z,101975.48
2018-06-19T15:07:01.496Z,101982.13
2018-06-19T15:09:30.127Z,101980.49
2018-06-19T15:11:58.690Z,101979.17
2018-06-19T15:14:27.324Z,101977.09
2018-06-19T15:16:56.180Z,101975.71
2018-06-19T15:19:24.849Z,101969.14
2018-06-19T15:21:53.416Z,101969.11
2018-06-19T15:24:22.015Z,101972.56
2018-06-19T15:26:50.620Z,101976.06
2018-06-19T15:29:19.357Z,101969.11
2018-06-19T15:31:47.976Z,101968.88
2018-06-19T15:34:16.584Z,101968.95
2018-06-19T15:36:45.264Z,101963.80
2018-06-19T15:39:14.785Z,101962.56
2018-06-19T15:41:44.129Z,101963.80
2018-06-19T15:44:12.720Z,101965.12
2018-06-19T15:46:41.313Z,101959.17
2018-06-19T15:49:09.930Z,101966.33
2018-06-19T15:51:38.548Z,101968.09
2018-06-19T15:54:07.166Z,101962.72
2018-06-19T15:56:35.793Z,101957.02
2018-06-19T15:59:04.640Z,101950.48
2018-06-19T16:01:33.354Z,101949.16
2018-06-19T16:04:02.014Z,101961.60
2018-06-19T16:06:30.658Z,101954.64
2018-06-19T16:08:59.248Z,101954.61
2018-06-19T16:11:27.944Z,101949.35
2018-06-19T16:13:56.632Z,101946.62
2018-06-19T16:16:25.445Z,101948.47
2018-06-19T16:18:54.026Z,101950.65
2018-06-19T16:21:22.785Z,101943.55
2018-06-19T16:23:51.327Z,101941.70
2018-06-19T16:26:20.022Z,101944.84
2018-06-19T16:28:48.581Z,101949.69
2018-06-19T16:31:17.225Z,101942.58
2018-06-19T16:33:46.136Z,101948.39
2018-06-19T16:36:14.730Z,101942.66
2018-06-19T16:38:43.357Z,101944.92
2018-06-19T16:41:11.972Z,101945.78
2018-06-19T16:43:40.608Z,101946.25
2018-06-19T16:46:09.173Z,101950.70
2018-06-19T16:48:37.841Z,101944.86
2018-06-19T16:51:06.585Z,101945.39
2018-06-19T16:53:35.292Z,101939.30
2018-06-19T16:56:03.915Z,101938.45
2018-06-19T16:58:32.516Z,101939.33
2018-06-19T17:01:01.074Z,101932.28
2018-06-19T17:03:29.756Z,101932.77
2018-06-19T17:05:58.324Z,101933.11
2018-06-19T17:08:26.961Z,101937.95
2018-06-19T17:10:55.572Z,101933.50
2018-06-19T17:13:24.217Z,101934.35
2018-06-19T17:15:52.900Z,101926.86
2018-06-19T17:18:21.516Z,101932.64
2018-06-19T17:20:50.166Z,101929.06
2018-06-19T17:23:18.805Z,101933.47
2018-06-19T17:25:47.436Z,101932.92
2018-06-19T17:28:16.099Z,101930.72
2018-06-19T17:30:44.774Z,101929.81
2018-06-19T17:33:13.382Z,101932.80
2018-06-19T17:35:41.928Z,101929.75
2018-06-19T17:38:10.577Z,101933.33
2018-06-19T17:40:39.308Z,101926.76
2018-06-19T17:43:07.848Z,101930.66
2018-06-19T17:45:36.476Z,101924.94
2018-06-19T17:48:05.105Z,101923.56
2018-06-19T17:50:33.761Z,101928.84
2018-06-19T17:53:02.353Z,101927.11
2018-06-19T17:55:30.957Z,101919.13
2018-06-19T17:57:59.553Z,101920.45
2018-06-19T18:00:28.332Z,101924.41
2018-06-19T18:02:56.970Z,101924.91
2018-06-19T18:05:25.538Z,101918.61
2018-06-19T18:07:54.107Z,101921.56
2018-06-19T18:10:22.892Z,101920.69
2018-06-19T18:12:51.513Z,101918.02
2018-06-19T18:15:20.158Z,101922.03
2018-06-19T18:17:48.752Z,101920.22
2018-06-19T18:20:17.363Z,101923.73
2018-06-19T18:22:47.659Z,101923.33
2018-06-19T18:25:16.296Z,101915.78
2018-06-19T18:27:44.845Z,101920.66
2018-06-19T18:30:13.548Z,101917.13
2018-06-19T18:32:42.146Z,101916.72
2018-06-19T18:35:10.855Z,101912.70
2018-06-19T18:37:39.462Z,101912.67
2018-06-19T18:40:08.108Z,101914.38
2018-06-19T18:42:36.733Z,101920.03
2018-06-19T18:45:05.384Z,101919.62
2018-06-19T18:47:33.978Z,101913.91
2018-06-19T18:50:02.549Z,101916.98
2018-06-19T18:52:31.268Z,101917.86
2018-06-19T18:54:59.861Z,101920.03
2018-06-19T18:57:28.617Z,101920.06
2018-06-19T18:59:57.196Z,101920.03
2018-06-19T19:02:25.804Z,101922.23
2018-06-19T19:04:54.431Z,101914.25
2018-06-19T19:07:23.137Z,101911.64
2018-06-19T19:09:56.935Z,101918.24
2018-06-19T19:12:25.619Z,101916.92
2018-06-19T19:15:01.697Z,101917.33
2018-06-19T19:17:35.497Z,101918.65
2018-06-19T19:20:04.162Z,101916.86
2018-06-19T19:22:32.804Z,101914.59
2018-06-19T19:25:01.389Z,101916.36
2018-06-19T19:27:36.842Z,101912.39
2018-06-19T19:30:06.136Z,101911.52
2018-06-19T19:32:34.776Z,101915.88
2018-06-19T19:35:03.546Z,101916.33
2018-06-19T19:37:37.396Z,101912.30
2018-06-19T19:40:06.117Z,101919.30
2018-06-19T19:42:34.797Z,101923.27
2018-06-19T19:45:03.425Z,101917.98
2018-06-19T19:47:37.154Z,101922.35
2018-06-19T19:50:05.797Z,101927.22
2018-06-19T19:52:34.422Z,101928.55
2018-06-19T19:55:03.185Z,101935.55
2018-06-19T19:57:36.964Z,101935.98
2018-06-19T20:00:06.650Z,101931.19
2018-06-19T20:02:35.347Z,101931.16
2018-06-19T20:05:04.077Z,101942.55
2018-06-19T20:07:32.664Z,101946.52
2018-06-19T20:10:01.296Z,101942.92
2018-06-19T20:12:30.241Z,101940.73
2018-06-19T20:14:58.976Z,101945.97
2018-06-19T20:17:27.543Z,101945.97
2018-06-19T20:19:56.895Z,101942.02
2018-06-19T20:22:25.637Z,101945.56
2018-06-19T20:24:54.270Z,101949.93
2018-06-19T20:27:22.950Z,101950.33
2018-06-19T20:29:51.633Z,101950.77
2018-06-19T20:32:20.512Z,101948.50
2018-06-19T20:34:49.307Z,101950.70
2018-06-19T20:37:18.028Z,101951.07
2018-06-19T20:39:46.880Z,101952.80
2018-06-19T20:42:15.617Z,101955.87
2018-06-19T20:44:44.452Z,101956.34
2018-06-19T20:47:13.038Z,101951.47
2018-06-19T20:49:41.666Z,101953.67
2018-06-19T20:52:10.359Z,101962.43
2018-06-19T20:54:39.225Z,101965.52
2018-06-19T20:57:08.050Z,101966.80
2018-06-19T20:59:36.698Z,101964.55
2018-06-19T21:02:05.914Z,101960.60
2018-06-19T21:04:34.548Z,101965.55
2018-06-19T21:07:03.180Z,101961.99
2018-06-19T21:09:31.716Z,101960.20
2018-06-19T21:12:00.339Z,101957.96
2018-06-19T21:14:28.958Z,101955.32
2018-06-19T21:16:57.570Z,101961.00
2018-06-19T21:19:26.116Z,101952.13
2018-06-19T21:21:54.678Z,101959.20
2018-06-19T21:24:23.249Z,101939.20
2018-06-19T21:26:51.852Z,101953.38
2018-06-19T21:29:20.432Z,101949.94
2018-06-19T21:31:49.127Z,101955.98
2018-06-19T21:34:17.789Z,101960.34
2018-06-19T21:36:46.397Z,101948.91
2018-06-19T21:39:14.949Z,101952.86
2018-06-19T21:41:43.675Z,101956.86
2018-06-19T21:44:12.401Z,101956.82
2018-06-19T21:46:41.039Z,101948.91
2018-06-19T21:49:09.590Z,101949.78
2018-06-19T21:51:38.116Z,101952.42
2018-06-19T21:54:06.719Z,101953.23
2018-06-19T21:56:35.252Z,101947.95
2018-06-19T21:59:03.876Z,101952.75
2018-06-19T22:01:32.461Z,101950.55
2018-06-19T22:04:01.064Z,101951.83
2018-06-19T22:06:29.920Z,101951.42
2018-06-19T22:08:58.600Z,101946.08
2018-06-19T22:11:27.152Z,101944.36
2018-06-19T22:13:55.797Z,101943.03
2018-06-19T22:16:24.329Z,101941.27
2018-06-19T22:18:52.933Z,101942.52
2018-06-19T22:21:21.516Z,101948.16
2018-06-19T22:23:50.122Z,101939.77
2018-06-19T22:26:19.333Z,101939.40
2018-06-19T22:28:48.568Z,101942.88
2018-06-19T22:31:17.264Z,101944.64
2018-06-19T22:33:45.842Z,101943.36
2018-06-19T22:36:14.386Z,101940.23
2018-06-19T22:38:43.014Z,101940.68
2018-06-19T22:41:11.592Z,101944.16
2018-06-19T22:43:40.155Z,101946.83
2018-06-19T22:46:08.731Z,101944.59
2018-06-19T22:48:37.308Z,101944.19
2018-06-19T22:51:05.932Z,101945.43
2018-06-19T22:53:34.484Z,101948.95
2018-06-19T22:56:03.208Z,101943.68
2018-06-19T22:58:31.816Z,101951.19
2018-06-19T23:01:00.412Z,101949.43
2018-06-19T23:03:28.972Z,101943.67
2018-06-19T23:05:57.555Z,101944.59
2018-06-19T23:08:26.209Z,101947.23
2018-06-19T23:10:54.784Z,101946.80
2018-06-19T23:13:23.313Z,101948.11
2018-06-19T23:15:52.033Z,101946.31
2018-06-19T23:18:20.636Z,101944.91
2018-06-19T23:20:49.256Z,101941.40
2018-06-19T23:23:17.847Z,101941.40
2018-06-19T23:25:46.407Z,101936.52
2018-06-19T23:28:15.033Z,101937.84
2018-06-19T23:30:43.640Z,101938.72
2018-06-19T23:33:12.245Z,101937.41
2018-06-19T23:35:40.885Z,101939.16
2018-06-19T23:38:09.453Z,101940.88
2018-06-19T23:40:38.080Z,101933.84
2018-06-19T23:43:06.701Z,101935.16
2018-06-19T23:45:35.253Z,101932.53
2018-06-19T23:48:03.825Z,101933.88
2018-06-19T23:50:32.393Z,101925.98
2018-06-19T23:53:01.101Z,101924.66
2018-06-19T23:55:29.644Z,101926.34
2018-06-19T23:57:58.252Z,101921.81
